createdAt,value
2022-08-20T00:01:16.950Z,2.70
2022-08-20T00:03:50.163Z,2.37
2022-08-20T00:06:23.798Z,3.00
2022-08-20T00:08:51.903Z,2.50
2022-08-20T00:11:25.612Z,2.33
2022-08-20T00:13:59.276Z,2.33
2022-08-20T00:16:32.849Z,2.40
2022-08-20T00:19:02.310Z,2.60
2022-08-20T00:21:29.532Z,2.47
2022-08-20T00:23:59.246Z,3.53
2022-08-20T00:26:26.715Z,2.90
2022-08-20T00:28:54.429Z,2.20
2022-08-20T00:31:24.383Z,3.10
2022-08-20T00:33:52.803Z,2.53
2022-08-20T00:36:20.783Z,1.80
2022-08-20T00:38:48.416Z,2.50
2022-08-20T00:41:22.590Z,2.67
2022-08-20T00:44:14.067Z,2.97
2022-08-20T00:46:43.591Z,2.70
2022-08-20T00:49:29.494Z,3.23
2022-08-20T00:52:09.612Z,2.37
2022-08-20T00:54:56.913Z,2.67
2022-08-20T00:58:00.439Z,2.30
2022-08-20T01:00:38.112Z,2.70
2022-08-20T01:03:09.989Z,2.27
2022-08-20T01:05:47.081Z,1.93
2022-08-20T01:08:17.170Z,2.20
2022-08-20T01:10:49.808Z,3.13
2022-08-20T01:13:24.336Z,2.00
2022-08-20T01:15:56.197Z,2.40
2022-08-20T01:18:28.651Z,1.97
2022-08-20T01:21:04.310Z,2.63
2022-08-20T01:23:53.277Z,2.20
2022-08-20T01:26:27.428Z,3.17
2022-08-20T01:29:04.596Z,3.20
2022-08-20T01:31:38.916Z,2.10
2022-08-20T01:34:12.559Z,2.50
2022-08-20T01:36:46.505Z,2.80
2022-08-20T01:39:22.056Z,2.47
2022-08-20T01:41:51.875Z,2.70
2022-08-20T01:44:21.248Z,2.43
2022-08-20T01:46:51.964Z,2.80
2022-08-20T01:49:53.628Z,2.40
2022-08-20T01:52:57.333Z,2.33
2022-08-20T01:55:26.917Z,2.50
2022-08-20T01:57:54.805Z,2.47
2022-08-20T02:00:24.057Z,1.83
2022-08-20T02:02:52.007Z,3.40
2022-08-20T02:05:20.802Z,2.60
2022-08-20T02:07:49.034Z,3.20
2022-08-20T02:10:18.235Z,3.40
2022-08-20T02:12:45.491Z,2.80
2022-08-20T02:15:14.169Z,3.17
2022-08-20T02:17:43.244Z,3.00
2022-08-20T02:20:17.421Z,3.73
2022-08-20T02:22:53.400Z,2.80
2022-08-20T02:25:28.012Z,2.53
2022-08-20T02:28:00.901Z,3.27
2022-08-20T02:30:34.185Z,2.50
2022-08-20T02:33:05.513Z,3.00
2022-08-20T02:35:35.655Z,2.70
2022-08-20T02:38:03.418Z,2.57
2022-08-20T02:40:31.642Z,2.50
2022-08-20T02:43:00.972Z,2.50
2022-08-20T02:45:30.407Z,3.43
2022-08-20T02:47:59.146Z,3.00
2022-08-20T02:50:28.017Z,3.70
2022-08-20T02:52:55.255Z,2.60
2022-08-20T02:55:27.412Z,3.03
2022-08-20T02:58:00.634Z,3.20
2022-08-20T03:00:38.081Z,2.67
2022-08-20T03:03:10.486Z,2.37
2022-08-20T03:05:41.765Z,2.90
2022-08-20T03:08:12.434Z,2.43
2022-08-20T03:10:43.043Z,3.27
2022-08-20T03:13:13.762Z,3.00
2022-08-20T03:15:49.162Z,3.03
2022-08-20T03:18:20.426Z,3.17
2022-08-20T03:20:52.080Z,4.17
2022-08-20T03:23:21.883Z,3.13
2022-08-20T03:25:50.028Z,2.87
2022-08-20T03:28:19.011Z,2.83
2022-08-20T03:30:46.890Z,1.93
2022-08-20T03:33:14.327Z,3.07
2022-08-20T03:35:41.432Z,3.33
2022-08-20T03:38:12.533Z,3.77
2022-08-20T03:40:41.746Z,2.70
2022-08-20T03:43:10.324Z,3.10
2022-08-20T03:45:41.031Z,2.20
2022-08-20T03:48:10.941Z,3.00
2022-08-20T03:50:42.555Z,3.10
2022-08-20T03:53:13.122Z,3.33
2022-08-20T03:55:46.410Z,2.60
2022-08-20T03:58:32.813Z,2.50
2022-08-20T04:01:06.588Z,2.47
2022-08-20T04:03:35.493Z,2.80
2022-08-20T04:06:03.027Z,2.80
2022-08-20T04:08:31.131Z,2.83
2022-08-20T04:10:59.815Z,3.00
2022-08-20T04:13:29.945Z,3.53
2022-08-20T04:16:01.142Z,3.20
2022-08-20T04:18:28.463Z,2.53
2022-08-20T04:20:55.939Z,4.00
2022-08-20T04:23:23.474Z,2.73
2022-08-20T04:25:50.825Z,2.93
2022-08-20T04:28:27.177Z,3.20
2022-08-20T04:30:58.148Z,2.20
2022-08-20T04:33:34.171Z,2.90
2022-08-20T04:36:06.321Z,3.17
2022-08-20T04:38:50.630Z,3.40
2022-08-20T04:41:23.717Z,2.57
2022-08-20T04:43:54.653Z,3.23
2022-08-20T04:46:25.943Z,3.00
2022-08-20T04:48:53.797Z,3.50
2022-08-20T04:51:23.236Z,3.10
2022-08-20T04:53:53.707Z,3.10
2022-08-20T04:56:25.992Z,3.30
2022-08-20T04:58:57.448Z,3.53
2022-08-20T05:01:26.338Z,3.20
2022-08-20T05:03:55.322Z,3.03
2022-08-20T05:06:28.663Z,3.10
2022-08-20T05:08:58.769Z,3.70
2022-08-20T05:11:36.124Z,3.83
2022-08-20T05:14:09.694Z,3.97
2022-08-20T05:16:40.539Z,3.97
2022-08-20T05:19:13.160Z,4.60
2022-08-20T05:21:41.537Z,3.37
2022-08-20T05:24:10.414Z,4.10
2022-08-20T05:26:37.609Z,4.20
2022-08-20T05:29:06.881Z,4.67
2022-08-20T05:31:35.695Z,4.20
2022-08-20T05:34:12.034Z,4.50
2022-08-20T05:36:48.138Z,4.30
2022-08-20T05:39:18.969Z,4.13
2022-08-20T05:41:46.516Z,4.20
2022-08-20T05:44:15.580Z,3.87
2022-08-20T05:46:45.637Z,3.23
2022-08-20T05:49:18.116Z,3.40
2022-08-20T05:51:45.840Z,4.13
2022-08-20T05:54:15.742Z,3.47
2022-08-20T05:56:43.417Z,3.50
2022-08-20T05:59:12.675Z,4.50
2022-08-20T06:01:43.027Z,3.90
2022-08-20T06:04:32.138Z,4.33
2022-08-20T06:07:07.226Z,4.50
2022-08-20T06:09:36.265Z,5.10
2022-08-20T06:12:08.965Z,4.50
2022-08-20T06:14:36.440Z,4.57
2022-08-20T06:17:19.181Z,4.80
2022-08-20T06:19:51.353Z,3.77
2022-08-20T06:22:25.696Z,4.20
2022-08-20T06:24:54.380Z,4.30
2022-08-20T06:27:22.596Z,3.30
2022-08-20T06:29:51.209Z,4.67
2022-08-20T06:32:21.194Z,3.97
2022-08-20T06:35:03.609Z,4.27
2022-08-20T06:37:34.124Z,4.23
2022-08-20T06:40:24.759Z,4.00
2022-08-20T06:43:03.041Z,3.60
2022-08-20T06:45:33.308Z,3.60
2022-08-20T06:48:07.335Z,4.07
2022-08-20T06:50:45.865Z,3.97
2022-08-20T06:53:19.527Z,4.20
2022-08-20T06:55:53.492Z,4.50
2022-08-20T06:58:36.767Z,3.50
2022-08-20T07:01:09.607Z,3.73
2022-08-20T07:03:55.668Z,3.33
2022-08-20T07:06:29.143Z,3.13
2022-08-20T07:08:57.325Z,3.57
2022-08-20T07:16:48.257Z,4.50
2022-08-20T07:19:16.697Z,4.13
2022-08-20T07:21:44.010Z,4.53
2022-08-20T07:24:13.054Z,6.00
2022-08-20T07:26:40.270Z,4.83
2022-08-20T07:29:07.658Z,5.83
2022-08-20T07:31:54.433Z,4.50
2022-08-20T07:34:22.129Z,5.10
2022-08-20T07:36:50.582Z,5.13
2022-08-20T07:39:24.196Z,7.30
2022-08-20T07:42:05.563Z,5.30
2022-08-20T07:47:00.448Z,7.27
2022-08-20T07:49:41.929Z,6.00
2022-08-20T07:52:14.941Z,7.00
2022-08-20T07:57:16.980Z,6.67
2022-08-20T08:02:34.568Z,7.07
2022-08-20T08:05:05.223Z,6.90
2022-08-20T08:15:34.560Z,8.80
2022-08-20T08:18:27.713Z,7.00
2022-08-20T08:20:58.287Z,5.97
2022-08-20T08:25:55.448Z,7.53
2022-08-20T08:28:27.036Z,7.43
2022-08-20T08:30:54.174Z,8.37
2022-08-20T08:33:33.624Z,7.67
2022-08-20T08:36:11.381Z,7.70
2022-08-20T08:38:42.445Z,7.53
2022-08-20T08:41:22.947Z,7.07
2022-08-20T08:43:54.455Z,7.10
2022-08-20T08:46:30.222Z,8.73
2022-08-20T08:49:01.712Z,6.50
2022-08-20T08:51:40.636Z,6.80
2022-08-20T08:54:17.489Z,8.33
2022-08-20T08:56:49.778Z,7.97
2022-08-20T08:59:20.381Z,7.93
2022-08-20T09:01:55.199Z,9.33
2022-08-20T09:04:32.677Z,10.63
2022-08-20T09:07:03.567Z,8.83
2022-08-20T09:09:37.457Z,10.47
2022-08-20T09:12:15.562Z,9.10
2022-08-20T09:14:42.692Z,10.30
2022-08-20T09:17:09.908Z,10.13
2022-08-20T09:19:37.372Z,9.50
2022-08-20T09:22:17.381Z,9.67
2022-08-20T09:24:45.265Z,8.67
2022-08-20T09:27:13.218Z,12.00
2022-08-20T09:29:40.524Z,12.67
2022-08-20T09:32:24.302Z,13.57
2022-08-20T09:34:59.434Z,10.43
2022-08-20T09:37:35.042Z,11.30
2022-08-20T09:40:06.490Z,11.63
2022-08-20T09:42:41.013Z,10.80
2022-08-20T09:45:11.650Z,11.47
2022-08-20T09:47:43.845Z,10.57
2022-08-20T09:50:24.329Z,8.90
2022-08-20T09:52:55.323Z,10.30
2022-08-20T09:55:41.526Z,11.90
2022-08-20T09:58:31.379Z,9.27
2022-08-20T10:01:07.784Z,9.47
2022-08-20T10:03:48.912Z,11.67
2022-08-20T10:06:19.898Z,10.53
2022-08-20T10:08:48.894Z,8.90
2022-08-20T10:11:18.069Z,10.70
2022-08-20T10:13:46.418Z,9.50
2022-08-20T10:16:13.946Z,10.07
2022-08-20T10:18:41.188Z,11.70
2022-08-20T10:21:12.390Z,9.77
2022-08-20T10:23:40.742Z,10.27
2022-08-20T10:26:11.160Z,10.17
2022-08-20T10:28:40.268Z,8.87
2022-08-20T10:31:12.825Z,9.60
2022-08-20T10:33:42.810Z,7.73
2022-08-20T10:36:17.858Z,8.00
2022-08-20T10:38:46.560Z,6.70
2022-08-20T10:41:15.515Z,8.70
2022-08-20T10:43:45.744Z,8.37
2022-08-20T10:46:14.508Z,7.17
2022-08-20T10:48:50.635Z,6.40
2022-08-20T10:51:22.936Z,6.10
2022-08-20T10:54:03.175Z,6.27
2022-08-20T10:56:45.716Z,6.17
2022-08-20T10:59:13.920Z,6.43
2022-08-20T11:01:45.358Z,5.70
2022-08-20T11:04:21.596Z,4.90
2022-08-20T11:09:32.361Z,5.73
2022-08-20T11:12:07.188Z,4.07
2022-08-20T11:14:46.404Z,6.70
2022-08-20T11:17:24.262Z,5.23
2022-08-20T11:22:40.777Z,7.10
2022-08-20T11:25:15.272Z,5.77
2022-08-20T11:28:00.472Z,5.60
2022-08-20T11:30:41.856Z,5.47
2022-08-20T11:33:16.058Z,5.30
2022-08-20T11:35:49.268Z,5.70
2022-08-20T11:41:36.092Z,6.37
2022-08-20T11:49:23.468Z,4.40
2022-08-20T11:51:52.488Z,4.33
2022-08-20T11:56:48.808Z,5.13
2022-08-20T11:59:26.338Z,5.83
2022-08-20T12:02:02.944Z,4.30
2022-08-20T12:04:33.423Z,4.80
2022-08-20T12:07:18.268Z,4.87
2022-08-20T12:09:50.895Z,4.33
2022-08-20T12:12:28.108Z,4.60
2022-08-20T12:14:56.798Z,4.80
2022-08-20T12:17:38.623Z,3.60
2022-08-20T12:23:08.463Z,3.00
2022-08-20T12:25:35.701Z,2.80
2022-08-20T12:28:05.162Z,2.50
2022-08-20T12:30:33.852Z,2.70
2022-08-20T12:33:01.616Z,2.40
2022-08-20T12:35:29.655Z,2.50
2022-08-20T12:38:03.685Z,2.40
2022-08-20T12:40:32.684Z,2.27
2022-08-20T12:43:03.262Z,2.10
2022-08-20T12:45:31.935Z,1.97
2022-08-20T12:48:13.130Z,2.47
2022-08-20T12:50:43.391Z,1.83
2022-08-20T12:53:10.646Z,1.70
2022-08-20T12:55:38.383Z,1.97
2022-08-20T12:58:09.044Z,1.70
2022-08-20T13:00:50.470Z,1.90
2022-08-20T13:03:20.550Z,1.60
2022-08-20T13:05:49.039Z,2.00
2022-08-20T13:08:18.009Z,1.50
2022-08-20T13:10:46.747Z,1.37
2022-08-20T13:13:21.277Z,1.40
2022-08-20T13:15:51.385Z,1.43
2022-08-20T13:18:20.572Z,0.97
2022-08-20T13:20:48.310Z,1.03
2022-08-20T13:23:19.431Z,2.33
2022-08-20T13:25:46.662Z,1.20
2022-08-20T13:28:13.927Z,1.87
2022-08-20T13:30:41.678Z,3.40
2022-08-20T13:33:08.911Z,3.10
2022-08-20T13:35:36.217Z,1.80
2022-08-20T13:38:03.541Z,1.50
2022-08-20T13:40:30.831Z,1.10
2022-08-20T13:42:58.437Z,1.20
2022-08-20T13:45:26.158Z,1.53
2022-08-20T13:47:55.820Z,1.57
2022-08-20T13:50:25.799Z,1.10
2022-08-20T13:52:53.221Z,1.03
2022-08-20T13:55:24.067Z,1.80
2022-08-20T13:57:53.426Z,1.23
2022-08-20T14:00:32.367Z,1.60
2022-08-20T14:03:06.357Z,1.13
2022-08-20T14:05:36.454Z,1.37
2022-08-20T14:10:58.375Z,1.33
2022-08-20T14:13:27.432Z,1.03
2022-08-20T14:16:01.657Z,1.40
2022-08-20T14:18:42.687Z,1.60
2022-08-20T14:21:15.844Z,1.77
2022-08-20T14:23:44.396Z,1.27
2022-08-20T14:26:16.792Z,1.30
2022-08-20T14:28:55.663Z,1.53
2022-08-20T14:31:22.866Z,1.63
2022-08-20T14:33:56.079Z,1.47
2022-08-20T14:36:23.710Z,1.40
2022-08-20T14:38:50.975Z,1.40
2022-08-20T14:41:18.131Z,1.57
2022-08-20T14:43:45.179Z,1.37
2022-08-20T14:46:12.320Z,1.70
2022-08-20T14:48:39.497Z,1.70
2022-08-20T14:51:09.884Z,1.90
2022-08-20T14:53:40.481Z,1.40
2022-08-20T14:56:08.007Z,1.60
2022-08-20T14:58:35.348Z,1.70
2022-08-20T15:01:02.612Z,1.50
2022-08-20T15:03:30.762Z,1.40
2022-08-20T15:05:59.302Z,1.53
2022-08-20T15:08:28.803Z,1.20
2022-08-20T15:10:56.193Z,1.10
2022-08-20T15:13:23.345Z,1.27
2022-08-20T15:15:50.536Z,1.80
2022-08-20T15:18:18.725Z,1.03
2022-08-20T15:20:45.855Z,1.40
2022-08-20T15:23:12.946Z,1.13
2022-08-20T15:25:40.072Z,1.40
2022-08-20T15:28:10.860Z,1.33
2022-08-20T15:30:40.952Z,1.33
2022-08-20T15:33:10.525Z,1.47
2022-08-20T15:35:38.291Z,1.40
2022-08-20T15:38:05.506Z,1.37
2022-08-20T15:40:33.864Z,1.33
2022-08-20T15:43:03.717Z,1.23
2022-08-20T15:45:32.374Z,1.00
2022-08-20T15:48:20.550Z,0.97
2022-08-20T15:51:08.759Z,1.20
2022-08-20T15:54:17.452Z,1.10
2022-08-20T15:57:21.241Z,1.40
2022-08-20T16:00:20.361Z,1.10
2022-08-20T16:03:10.851Z,1.50
2022-08-20T16:05:56.753Z,1.77
2022-08-20T16:08:29.968Z,1.60
2022-08-20T16:11:32.469Z,1.50
2022-08-20T16:14:34.924Z,1.30
2022-08-20T16:17:09.561Z,1.63
2022-08-20T16:19:59.829Z,1.93
2022-08-20T16:22:31.470Z,1.50
2022-08-20T16:24:58.955Z,2.00
2022-08-20T16:27:53.100Z,1.50
2022-08-20T16:30:49.477Z,1.10
2022-08-20T16:33:41.750Z,1.70
2022-08-20T16:36:33.481Z,1.00
2022-08-20T16:39:17.408Z,1.03
2022-08-20T16:41:49.548Z,1.10
2022-08-20T16:44:35.272Z,1.27
2022-08-20T16:47:17.196Z,0.90
2022-08-20T16:50:04.653Z,1.37
2022-08-20T16:52:32.271Z,2.33
2022-08-20T16:54:59.617Z,2.10
2022-08-20T16:57:29.927Z,1.90
2022-08-20T17:00:30.494Z,2.27
2022-08-20T17:03:08.028Z,1.67
2022-08-20T17:05:38.154Z,1.80
2022-08-20T17:08:15.367Z,1.40
2022-08-20T17:11:12.561Z,1.47
2022-08-20T17:13:44.949Z,1.37
2022-08-20T17:16:15.123Z,1.27
2022-08-20T17:18:50.947Z,1.53
2022-08-20T17:21:35.596Z,1.77
2022-08-20T17:24:21.397Z,1.50
2022-08-20T17:27:03.452Z,1.50
2022-08-20T17:29:38.468Z,1.37
2022-08-20T17:32:28.160Z,1.60
2022-08-20T17:35:00.521Z,1.30
2022-08-20T17:37:34.364Z,1.40
2022-08-20T17:40:25.232Z,1.83
2022-08-20T17:43:29.629Z,1.47
2022-08-20T17:46:03.044Z,1.60
2022-08-20T17:48:42.996Z,1.70
2022-08-20T17:51:38.780Z,1.77
2022-08-20T17:54:32.930Z,1.60
2022-08-20T17:57:07.213Z,1.30
2022-08-20T18:00:00.059Z,1.83
2022-08-20T18:02:29.985Z,1.57
2022-08-20T18:04:57.348Z,1.67
2022-08-20T18:07:53.544Z,1.93
2022-08-20T18:10:27.276Z,1.73
2022-08-20T18:13:09.427Z,1.40
2022-08-20T18:15:49.083Z,1.50
2022-08-20T18:18:56.870Z,2.10
2022-08-20T18:21:47.228Z,1.57
2022-08-20T18:24:26.417Z,1.37
2022-08-20T18:27:09.160Z,2.10
2022-08-20T18:29:43.565Z,1.43
2022-08-20T18:32:51.130Z,1.40
2022-08-20T18:35:33.192Z,1.67
2022-08-20T18:38:22.345Z,2.07
2022-08-20T18:40:54.891Z,1.40
2022-08-20T18:43:31.499Z,1.90
2022-08-20T18:46:23.846Z,1.50
2022-08-20T18:48:56.278Z,1.63
2022-08-20T18:51:36.280Z,1.77
2022-08-20T18:54:04.664Z,1.57
2022-08-20T18:56:42.827Z,1.43
2022-08-20T18:59:19.980Z,1.63
2022-08-20T19:01:49.323Z,1.80
2022-08-20T19:04:33.806Z,1.63
2022-08-20T19:07:05.813Z,1.70
2022-08-20T19:10:07.830Z,2.17
2022-08-20T19:13:32.888Z,2.17
2022-08-20T19:16:09.681Z,1.87
2022-08-20T19:18:36.759Z,1.73
2022-08-20T19:21:04.917Z,1.93
2022-08-20T19:23:54.149Z,1.77
2022-08-20T19:26:25.629Z,2.07
2022-08-20T19:29:07.270Z,1.93
2022-08-20T19:31:36.411Z,2.47
2022-08-20T19:34:21.563Z,1.87
2022-08-20T19:37:39.861Z,2.40
2022-08-20T19:40:31.910Z,2.00
2022-08-20T19:43:03.145Z,1.97
2022-08-20T19:45:38.721Z,2.20
2022-08-20T19:48:53.972Z,4.20
2022-08-20T19:51:53.130Z,5.23
2022-08-20T19:54:24.242Z,4.20
2022-08-20T19:56:56.731Z,3.37
2022-08-20T19:59:24.335Z,2.80
2022-08-20T20:02:04.860Z,4.07
2022-08-20T20:04:54.891Z,3.10
2022-08-20T20:07:48.617Z,5.97
2022-08-20T20:10:33.160Z,4.40
2022-08-20T20:13:16.997Z,3.97
2022-08-20T20:15:44.892Z,3.10
2022-08-20T20:18:13.797Z,3.40
2022-08-20T20:20:57.173Z,2.20
2022-08-20T20:23:38.724Z,2.47
2022-08-20T20:26:19.971Z,2.90
2022-08-20T20:28:50.966Z,2.20
2022-08-20T20:31:25.713Z,3.00
2022-08-20T20:33:58.367Z,2.60
2022-08-20T20:36:45.593Z,2.60
2022-08-20T20:39:31.207Z,3.47
2022-08-20T20:42:01.905Z,3.27
2022-08-20T20:44:43.276Z,3.80
2022-08-20T20:47:26.734Z,2.87
2022-08-20T20:50:06.162Z,2.47
2022-08-20T20:52:49.595Z,2.20
2022-08-20T20:55:31.772Z,3.00
2022-08-20T20:58:02.751Z,2.10
2022-08-20T21:00:33.385Z,2.87
2022-08-20T21:03:02.653Z,2.33
2022-08-20T21:05:32.661Z,3.03
2022-08-20T21:08:06.072Z,2.40
2022-08-20T21:10:37.695Z,2.40
2022-08-20T21:13:08.197Z,2.17
2022-08-20T21:15:37.833Z,2.63
2022-08-20T21:18:09.119Z,2.10
2022-08-20T21:20:37.315Z,3.03
2022-08-20T21:23:05.318Z,1.93
2022-08-20T21:25:35.172Z,1.90
2022-08-20T21:28:03.500Z,2.50
2022-08-20T21:30:31.604Z,3.27
2022-08-20T21:32:59.221Z,2.53
2022-08-20T21:35:27.033Z,2.90
2022-08-20T21:37:54.401Z,2.40
2022-08-20T21:40:22.058Z,2.10
2022-08-20T21:42:50.106Z,3.00
2022-08-20T21:45:19.654Z,2.60
2022-08-20T21:47:48.856Z,2.53
2022-08-20T21:50:19.234Z,2.23
2022-08-20T21:52:55.498Z,2.20
2022-08-20T21:55:35.037Z,2.00
2022-08-20T21:58:05.540Z,2.70
2022-08-20T22:00:53.442Z,2.23
2022-08-20T22:03:24.916Z,2.40
2022-08-20T22:05:52.903Z,3.00
2022-08-20T22:08:21.308Z,2.93
2022-08-20T22:10:57.184Z,2.83
2022-08-20T22:13:31.377Z,3.10
2022-08-20T22:16:06.340Z,3.50
2022-08-20T22:18:34.780Z,2.30
2022-08-20T22:21:03.071Z,2.40
2022-08-20T22:23:30.411Z,2.57
2022-08-20T22:25:57.566Z,2.47
2022-08-20T22:28:25.366Z,3.00
2022-08-20T22:30:53.081Z,2.90
2022-08-20T22:33:24.470Z,1.80
2022-08-20T22:35:55.732Z,2.30
2022-08-20T22:38:23.576Z,2.73
2022-08-20T22:40:51.607Z,2.67
2022-08-20T22:43:18.874Z,2.63
2022-08-20T22:45:49.944Z,2.83
2022-08-20T22:48:20.251Z,2.93
2022-08-20T22:50:50.280Z,2.73
2022-08-20T22:53:20.802Z,2.50
2022-08-20T22:55:48.976Z,3.80
2022-08-20T22:58:17.689Z,3.27
2022-08-20T23:00:47.449Z,2.80
2022-08-20T23:03:19.872Z,3.07
2022-08-20T23:06:09.229Z,2.43
2022-08-20T23:08:38.224Z,2.60
2022-08-20T23:11:06.254Z,2.43
2022-08-20T23:13:33.617Z,2.60
2022-08-20T23:16:01.756Z,2.00
2022-08-20T23:18:29.061Z,2.40
2022-08-20T23:20:59.178Z,2.30
2022-08-20T23:23:27.685Z,2.40
2022-08-20T23:25:55.613Z,2.60
2022-08-20T23:28:25.504Z,2.60
2022-08-20T23:30:52.966Z,1.87
2022-08-20T23:33:20.164Z,1.80
2022-08-20T23:35:48.048Z,2.63
2022-08-20T23:38:15.600Z,2.47
2022-08-20T23:40:43.531Z,2.40
2022-08-20T23:43:10.745Z,2.37
2022-08-20T23:45:40.337Z,2.90
2022-08-20T23:48:08.817Z,2.27
2022-08-20T23:50:37.215Z,2.20
2022-08-20T23:53:05.440Z,2.87
2022-08-20T23:55:32.941Z,2.33
2022-08-20T23:58:00.454Z,2.37
